Time;durP1;ratioP1;P1;durP2;ratioP2;P2;SDS_P1;SDS_P2;PMS_P1;PMS_P2;Temp;Humidity;BMP_temperature;BMP_pressure;BME280_temperature;BME280_humidity;BME280_pressure;Samples;Min_cycle;Max_cycle;Signal;HPM_P1;HPM_P2
2023/06/30 00:01:48;;;;;;;0.50;0.37;;;16.70;99.90;;;;;;5073309;28;20191;-68
2023/06/30 00:04:19;;;;;;;1.37;0.60;;;17.10;99.90;;;;;;5073327;28;20188;-69
2023/06/30 00:06:50;;;;;;;0.40;0.40;;;17.50;99.90;;;;;;5072480;28;20174;-68
2023/06/30 00:09:20;;;;;;;0.67;0.50;;;17.70;99.90;;;;;;5073400;28;20218;-68
2023/06/30 00:11:51;;;;;;;0.53;0.40;;;17.70;99.90;;;;;;5073234;28;20204;-68
2023/06/30 00:14:19;;;;;;;0.97;0.43;;;17.60;99.90;;;;;;5073217;28;20217;-69
2023/06/30 00:16:47;;;;;;;0.40;0.30;;;17.70;99.90;;;;;;5073109;28;20258;-68
2023/06/30 00:19:15;;;;;;;0.90;0.37;;;17.70;99.90;;;;;;5072203;28;20214;-68
2023/06/30 00:21:43;;;;;;;2.90;0.50;;;17.60;99.90;;;;;;5072031;28;20271;-69
2023/06/30 00:24:12;;;;;;;0.50;0.40;;;18.10;99.90;;;;;;5073215;28;20215;-69
2023/06/30 00:26:41;;;;;;;0.33;0.33;;;18.20;99.90;;;;;;5072935;28;20187;-69
2023/06/30 00:29:09;;;;;;;0.67;0.50;;;18.20;98.40;;;;;;5073295;28;20298;-69
2023/06/30 00:31:37;;;;;;;0.73;0.40;;;18.10;98.10;;;;;;5073240;28;20220;-69
2023/06/30 00:34:05;;;;;;;0.60;0.40;;;18.10;98.20;;;;;;5072587;28;20233;-69
2023/06/30 00:36:33;;;;;;;4.13;0.50;;;17.90;97.00;;;;;;5073311;28;20170;-69
2023/06/30 00:39:01;;;;;;;0.30;0.30;;;17.40;97.90;;;;;;5070476;28;20195;-71
2023/06/30 00:41:28;;;;;;;0.30;0.30;;;17.60;97.90;;;;;;5071923;28;20274;-71
2023/06/30 00:43:56;;;;;;;0.47;0.40;;;17.70;97.50;;;;;;5071511;28;20183;-71
2023/06/30 00:46:24;;;;;;;0.60;0.40;;;17.80;98.00;;;;;;5072094;28;20186;-69
2023/06/30 00:48:52;;;;;;;0.40;0.30;;;18.00;96.20;;;;;;5071218;28;20506;-68
2023/06/30 00:51:20;;;;;;;0.30;0.30;;;18.30;96.70;;;;;;5072659;28;20623;-70
2023/06/30 00:53:48;;;;;;;0.30;0.30;;;18.20;95.10;;;;;;5072526;28;20215;-69
2023/06/30 00:56:16;;;;;;;0.70;0.37;;;18.30;95.70;;;;;;5072646;28;20179;-69
2023/06/30 00:58:44;;;;;;;2.87;0.60;;;18.40;93.90;;;;;;5068486;28;20626;-69
2023/06/30 01:01:41;;;;;;;0.70;0.40;;;18.60;93.50;;;;;;5068269;28;20215;-68
2023/06/30 01:04:29;;;;;;;0.27;0.27;;;18.60;93.10;;;;;;5072462;28;20169;-70
2023/06/30 01:07:23;;;;;;;0.40;0.40;;;18.90;92.90;;;;;;5053115;28;20615;-70
2023/06/30 01:10:10;;;;;;;1.60;0.23;;;19.20;91.70;;;;;;5071729;28;20191;-71
2023/06/30 01:12:38;;;;;;;1.70;0.30;;;19.10;90.70;;;;;;5072267;28;20586;-72
2023/06/30 01:15:08;;;;;;;0.30;0.30;;;19.60;88.00;;;;;;5072431;28;20584;-69
2023/06/30 01:17:43;;;;;;;1.57;0.40;;;19.80;85.80;;;;;;5072020;28;20601;-69
2023/06/30 01:20:13;;;;;;;0.30;0.30;;;20.10;83.60;;;;;;5071061;28;20175;-69
2023/06/30 01:23:08;;;;;;;2.47;0.30;;;20.40;81.80;;;;;;5072053;28;20176;-70
2023/06/30 01:25:35;;;;;;;1.53;0.30;;;19.60;79.70;;;;;;5072041;28;20168;-73
2023/06/30 01:28:04;;;;;;;0.20;0.20;;;19.50;82.70;;;;;;5072389;28;20179;-68
2023/06/30 01:30:32;;;;;;;2.17;0.50;;;19.70;83.10;;;;;;5071639;28;20176;-69
2023/06/30 01:33:01;;;;;;;2.47;0.30;;;20.50;78.60;;;;;;5071639;28;20199;-72
2023/06/30 01:35:29;;;;;;;1.73;0.20;;;20.50;76.20;;;;;;5071893;28;20281;-69
2023/06/30 01:37:57;;;;;;;0.53;0.33;;;20.60;72.20;;;;;;5072252;28;20180;-69
2023/06/30 01:40:25;;;;;;;0.80;0.30;;;20.50;77.10;;;;;;5071483;28;20198;-72
2023/06/30 01:42:55;;;;;;;4.33;0.40;;;20.10;74.50;;;;;;5071873;28;20188;-70
2023/06/30 01:45:28;;;;;;;1.67;0.43;;;20.10;76.00;;;;;;5071770;28;20243;-71
2023/06/30 01:47:57;;;;;;;0.73;0.40;;;20.30;74.50;;;;;;5076147;28;20644;-69
2023/06/30 01:50:31;;;;;;;0.87;0.30;;;20.40;74.10;;;;;;5071736;28;20645;-70
2023/06/30 01:53:00;;;;;;;0.40;0.40;;;20.60;71.20;;;;;;5071785;28;20198;-71
2023/06/30 01:55:28;;;;;;;2.00;0.60;;;20.40;73.40;;;;;;5071433;28;20216;-70
2023/06/30 01:57:56;;;;;;;5.30;0.60;;;20.80;75.50;;;;;;5071865;28;20172;-73
2023/06/30 02:00:24;;;;;;;3.23;0.70;;;21.50;74.80;;;;;;5071784;28;20180;-72
2023/06/30 02:02:51;;;;;;;4.30;0.90;;;21.60;69.00;;;;;;5071268;28;20680;-70
2023/06/30 02:05:19;;;;;;;1.03;0.53;;;21.50;68.40;;;;;;5071879;28;20622;-68
2023/06/30 02:07:47;;;;;;;2.60;1.10;;;21.50;69.30;;;;;;5071845;28;20237;-70
2023/06/30 02:10:15;;;;;;;1.63;0.50;;;21.80;67.20;;;;;;5071329;28;20638;-70
2023/06/30 02:12:43;;;;;;;0.70;0.57;;;22.50;67.60;;;;;;5070609;28;20191;-70
2023/06/30 02:15:11;;;;;;;2.77;0.50;;;23.10;62.10;;;;;;5071674;28;20680;-72
2023/06/30 02:17:40;;;;;;;0.80;0.50;;;23.10;59.30;;;;;;5082657;28;20263;-69
2023/06/30 02:20:09;;;;;;;2.10;0.80;;;22.60;58.60;;;;;;5091922;28;20179;-69
2023/06/30 02:22:38;;;;;;;4.27;0.70;;;22.30;60.40;;;;;;5087412;28;20171;-69
2023/06/30 02:25:06;;;;;;;1.33;0.70;;;22.30;58.20;;;;;;5072691;28;20186;-69
2023/06/30 02:30:20;;;;;;;0.70;0.50;;;22.00;58.90;;;;;;5071193;28;20199;-72
2023/06/30 02:32:48;;;;;;;1.30;0.60;;;22.40;58.10;;;;;;5071359;28;20183;-71
2023/06/30 02:35:15;;;;;;;1.30;0.87;;;22.20;58.60;;;;;;5072471;28;20207;-70
2023/06/30 02:37:42;;;;;;;1.03;0.40;;;22.40;62.10;;;;;;5072844;28;20176;-72
2023/06/30 02:40:10;;;;;;;1.90;0.40;;;22.70;55.90;;;;;;5072659;28;20183;-70
2023/06/30 02:42:37;;;;;;;2.10;0.87;;;22.40;54.30;;;;;;5073556;28;20168;-71
2023/06/30 02:45:06;;;;;;;0.57;0.40;;;22.30;55.40;;;;;;5076532;28;20634;-69
2023/06/30 02:47:33;;;;;;;1.10;0.50;;;22.80;55.10;;;;;;5076511;28;20176;-69
2023/06/30 02:50:00;;;;;;;1.17;0.70;;;22.80;54.10;;;;;;5076496;28;20568;-70
2023/06/30 02:52:28;;;;;;;1.97;0.60;;;22.50;53.30;;;;;;5076238;28;20172;-69
2023/06/30 02:54:55;;;;;;;0.80;0.40;;;22.30;54.30;;;;;;5092724;28;20218;-71
2023/06/30 02:57:22;;;;;;;2.00;0.40;;;22.10;54.40;;;;;;5096527;28;20174;-71
2023/06/30 02:59:50;;;;;;;1.33;0.63;;;22.20;55.10;;;;;;5086919;28;20212;-69
2023/06/30 03:02:17;;;;;;;1.37;0.60;;;22.30;53.30;;;;;;5076050;28;20172;-69
2023/06/30 03:04:45;;;;;;;0.50;0.50;;;21.90;55.10;;;;;;5056084;28;20543;-70
2023/06/30 03:07:12;;;;;;;0.70;0.40;;;22.30;59.70;;;;;;5074286;28;20179;-69
2023/06/30 03:09:39;;;;;;;2.17;0.60;;;22.80;53.20;;;;;;5074354;28;20263;-69
2023/06/30 03:12:07;;;;;;;0.60;0.50;;;23.00;55.60;;;;;;5073658;28;20258;-68
2023/06/30 03:14:34;;;;;;;0.80;0.50;;;23.00;52.30;;;;;;5074337;28;20812;-70
2023/06/30 03:20:24;;;;;;;1.47;0.90;;;22.60;53.00;;;;;;5073105;28;20712;-69
2023/06/30 03:22:54;;;;;;;2.70;0.70;;;22.80;54.30;;;;;;5074590;28;20168;-72
2023/06/30 03:25:21;;;;;;;0.70;0.40;;;22.70;50.90;;;;;;5074713;28;20184;-71
2023/06/30 03:27:49;;;;;;;1.60;0.60;;;23.20;52.80;;;;;;5073944;28;20175;-73
2023/06/30 03:30:16;;;;;;;1.40;0.60;;;23.00;50.60;;;;;;5074374;28;20263;-68
2023/06/30 03:32:43;;;;;;;0.33;0.30;;;23.00;51.80;;;;;;5074474;28;20176;-70
2023/06/30 03:35:11;;;;;;;1.13;0.53;;;23.00;50.10;;;;;;5074065;28;20261;-69
2023/06/30 03:37:38;;;;;;;1.37;0.50;;;22.70;52.90;;;;;;5074318;28;20176;-69
2023/06/30 03:40:06;;;;;;;1.43;0.37;;;23.00;51.30;;;;;;5073880;28;20252;-72
2023/06/30 03:42:33;;;;;;;0.27;0.23;;;22.80;49.60;;;;;;5073868;28;20176;-74
2023/06/30 03:45:01;;;;;;;0.50;0.43;;;22.70;50.10;;;;;;5074337;28;20172;-69
2023/06/30 03:47:28;;;;;;;0.40;0.30;;;22.80;51.50;;;;;;5074197;28;20546;-68
2023/06/30 03:49:55;;;;;;;1.07;0.43;;;22.60;49.70;;;;;;5073492;28;20180;-68
2023/06/30 03:52:22;;;;;;;1.70;0.30;;;22.40;51.90;;;;;;5074113;28;20632;-70
2023/06/30 03:54:50;;;;;;;0.30;0.30;;;22.20;51.70;;;;;;5073465;28;20207;-68
2023/06/30 03:57:18;;;;;;;0.30;0.30;;;22.10;50.00;;;;;;5073526;28;20175;-68
2023/06/30 03:59:46;;;;;;;0.20;0.20;;;21.90;52.40;;;;;;5073679;28;20179;-73
2023/06/30 04:02:13;;;;;;;0.20;0.20;;;21.90;50.70;;;;;;5073947;28;20646;-71
2023/06/30 04:04:41;;;;;;;0.43;0.30;;;21.50;52.20;;;;;;5073392;28;20207;-69
2023/06/30 04:07:08;;;;;;;0.77;0.30;;;21.40;54.00;;;;;;5073915;28;20575;-70
2023/06/30 04:09:36;;;;;;;0.30;0.30;;;21.30;52.40;;;;;;5073541;28;20184;-71
2023/06/30 04:12:04;;;;;;;2.00;0.43;;;21.30;54.80;;;;;;5073346;28;20226;-72
2023/06/30 04:14:31;;;;;;;0.60;0.30;;;21.30;56.10;;;;;;5072860;28;20225;-69
2023/06/30 04:16:59;;;;;;;0.33;0.33;;;21.30;55.50;;;;;;5074176;28;20266;-68
2023/06/30 04:19:26;;;;;;;0.40;0.30;;;21.50;54.60;;;;;;5074364;28;20262;-70
2023/06/30 04:21:54;;;;;;;0.20;0.20;;;21.50;54.20;;;;;;5073292;28;20271;-70
2023/06/30 04:24:21;;;;;;;0.30;0.30;;;21.30;54.10;;;;;;5074535;28;20187;-70
2023/06/30 04:26:48;;;;;;;1.33;0.50;;;21.20;53.80;;;;;;5074159;28;20175;-68
2023/06/30 04:29:16;;;;;;;2.00;0.30;;;21.00;54.20;;;;;;5072598;28;20220;-68
2023/06/30 04:31:43;;;;;;;2.77;0.50;;;21.10;56.80;;;;;;5074541;28;20179;-68
2023/06/30 04:34:10;;;;;;;0.30;0.30;;;21.20;55.50;;;;;;5074327;28;20299;-70
2023/06/30 04:36:38;;;;;;;2.33;0.40;;;21.10;54.10;;;;;;5074815;28;20207;-70
2023/06/30 04:39:06;;;;;;;0.40;0.40;;;21.00;57.40;;;;;;5072903;28;20229;-70
2023/06/30 04:41:33;;;;;;;0.37;0.37;;;20.90;56.90;;;;;;5074021;28;20206;-67
2023/06/30 04:44:00;;;;;;;0.50;0.50;;;20.80;57.00;;;;;;5073167;28;20187;-68
2023/06/30 04:46:28;;;;;;;0.80;0.80;;;20.90;57.60;;;;;;5073789;28;20176;-68
2023/06/30 04:48:56;;;;;;;0.67;0.50;;;20.70;57.90;;;;;;5073619;28;20252;-66
2023/06/30 04:51:24;;;;;;;0.93;0.70;;;20.90;58.80;;;;;;5074013;28;20176;-67
2023/06/30 04:53:51;;;;;;;0.43;0.40;;;20.80;57.80;;;;;;5073958;28;20203;-68
2023/06/30 04:56:19;;;;;;;1.07;0.60;;;20.40;57.50;;;;;;5073909;28;20232;-67
2023/06/30 04:58:49;;;;;;;0.77;0.60;;;20.40;59.00;;;;;;5074093;28;20175;-69
2023/06/30 05:01:16;;;;;;;0.80;0.40;;;20.30;61.60;;;;;;5073962;28;20190;-68
2023/06/30 05:03:44;;;;;;;0.40;0.40;;;20.30;61.10;;;;;;5073910;28;20183;-68
2023/06/30 05:06:11;;;;;;;0.50;0.50;;;20.20;61.30;;;;;;5073161;28;20649;-67
2023/06/30 05:08:38;;;;;;;2.93;0.60;;;20.10;61.70;;;;;;5074078;28;20164;-69
2023/06/30 05:11:06;;;;;;;0.30;0.30;;;20.10;63.30;;;;;;5073493;28;20633;-68
2023/06/30 05:13:33;;;;;;;0.40;0.40;;;20.00;62.20;;;;;;5073821;28;20179;-67
2023/06/30 05:16:00;;;;;;;0.80;0.60;;;20.00;62.90;;;;;;5073734;28;20237;-69
2023/06/30 05:18:28;;;;;;;0.50;0.50;;;19.90;65.20;;;;;;5073313;28;20192;-67
2023/06/30 05:20:55;;;;;;;0.20;0.20;;;19.90;65.30;;;;;;5073359;28;20558;-68
2023/06/30 05:23:23;;;;;;;0.80;0.50;;;19.80;66.80;;;;;;5073599;28;20171;-68
2023/06/30 05:25:51;;;;;;;0.40;0.37;;;19.60;70.20;;;;;;5073310;28;20210;-70
2023/06/30 05:28:18;;;;;;;2.40;0.40;;;19.40;71.30;;;;;;5072003;28;20306;-68
2023/06/30 05:30:45;;;;;;;1.27;0.40;;;19.30;71.20;;;;;;5073243;28;20176;-69
2023/06/30 05:33:13;;;;;;;1.53;0.40;;;19.20;74.00;;;;;;5073265;28;20179;-70
2023/06/30 05:35:40;;;;;;;0.40;0.40;;;19.10;75.20;;;;;;5073199;28;20325;-69
2023/06/30 05:38:07;;;;;;;1.60;0.50;;;18.90;76.80;;;;;;5073189;28;20624;-68
2023/06/30 05:40:35;;;;;;;0.37;0.37;;;18.70;79.20;;;;;;5073148;28;20187;-69
2023/06/30 05:43:02;;;;;;;0.40;0.40;;;18.20;82.50;;;;;;5071748;28;20568;-69
2023/06/30 05:45:30;;;;;;;0.63;0.40;;;18.00;87.50;;;;;;5073320;28;20181;-69
2023/06/30 05:47:57;;;;;;;0.40;0.40;;;17.80;90.70;;;;;;5073022;28;20229;-68
2023/06/30 05:50:27;;;;;;;0.97;0.50;;;17.50;91.30;;;;;;5073135;28;20192;-67
2023/06/30 05:52:54;;;;;;;0.40;0.40;;;17.30;93.90;;;;;;5072963;28;20176;-68
2023/06/30 05:55:22;;;;;;;0.97;0.60;;;17.20;95.60;;;;;;5072936;28;20243;-68
2023/06/30 05:57:52;;;;;;;0.70;0.40;;;17.00;99.00;;;;;;5072508;28;20648;-69
2023/06/30 06:00:20;;;;;;;0.60;0.60;;;17.00;99.90;;;;;;5073038;28;20183;-68
2023/06/30 06:02:47;;;;;;;0.60;0.60;;;16.90;99.90;;;;;;5072934;28;20175;-67
2023/06/30 06:05:15;;;;;;;1.20;0.40;;;16.90;99.90;;;;;;5073020;28;20266;-71
2023/06/30 06:07:42;;;;;;;0.50;0.40;;;16.80;99.90;;;;;;5073067;28;20176;-68
2023/06/30 06:10:10;;;;;;;0.47;0.47;;;16.70;99.90;;;;;;5071448;28;20550;-68
2023/06/30 06:12:39;;;;;;;0.50;0.47;;;16.60;99.90;;;;;;5072795;28;20229;-71
2023/06/30 06:15:10;;;;;;;0.53;0.50;;;16.50;99.90;;;;;;5072862;28;20214;-70
2023/06/30 06:17:37;;;;;;;0.67;0.40;;;16.40;99.90;;;;;;5075681;28;20206;-70
2023/06/30 06:20:05;;;;;;;1.13;0.50;;;16.40;99.90;;;;;;5077321;28;20241;-68
2023/06/30 06:22:32;;;;;;;0.50;0.40;;;16.30;99.90;;;;;;5076778;28;20224;-67
2023/06/30 06:25:00;;;;;;;0.40;0.40;;;16.20;99.90;;;;;;5075592;28;20576;-69
2023/06/30 06:27:28;;;;;;;0.97;0.60;;;16.10;99.90;;;;;;5076878;28;20229;-67
2023/06/30 06:29:56;;;;;;;1.17;0.70;;;16.10;99.90;;;;;;5077077;28;20273;-70
2023/06/30 06:32:23;;;;;;;0.90;0.60;;;16.10;99.90;;;;;;5076712;28;20166;-69
2023/06/30 06:34:50;;;;;;;0.90;0.50;;;16.00;99.90;;;;;;5076707;28;20208;-69
2023/06/30 06:37:18;;;;;;;0.93;0.90;;;15.90;99.90;;;;;;5076658;28;20183;-70
2023/06/30 06:39:45;;;;;;;2.93;2.73;;;15.80;99.90;;;;;;5076563;28;20182;-68
2023/06/30 06:42:12;;;;;;;3.80;2.60;;;15.80;99.90;;;;;;5076428;28;20170;-68
2023/06/30 06:44:40;;;;;;;1.17;1.10;;;15.70;99.90;;;;;;5076670;28;20179;-68
2023/06/30 06:47:43;;;;;;;0.83;0.80;;;15.60;99.90;;;;;;5076497;28;20223;-70
2023/06/30 06:50:11;;;;;;;0.70;0.70;;;15.60;99.90;;;;;;5076435;28;20167;-69
2023/06/30 06:52:38;;;;;;;0.60;0.60;;;15.40;99.90;;;;;;5076284;28;20308;-70
2023/06/30 06:55:06;;;;;;;0.90;0.60;;;15.40;99.90;;;;;;5076580;28;20697;-67
2023/06/30 06:57:33;;;;;;;0.60;0.60;;;15.30;99.90;;;;;;5076105;28;20175;-69
2023/06/30 07:00:00;;;;;;;0.70;0.60;;;15.20;99.90;;;;;;5075985;28;20210;-67
2023/06/30 07:02:28;;;;;;;0.60;0.60;;;15.10;99.90;;;;;;5076102;28;20311;-69
2023/06/30 07:04:55;;;;;;;2.00;0.90;;;15.10;99.90;;;;;;5076146;28;20513;-67
2023/06/30 07:07:22;;;;;;;1.30;0.60;;;15.00;99.90;;;;;;5076078;28;20176;-68
2023/06/30 07:09:50;;;;;;;1.53;0.97;;;14.90;99.90;;;;;;5075997;28;20256;-67
2023/06/30 07:12:17;;;;;;;0.60;0.60;;;14.80;99.90;;;;;;5074874;28;20186;-70
2023/06/30 07:14:44;;;;;;;0.83;0.70;;;14.70;99.90;;;;;;5075753;28;20662;-69
2023/06/30 07:17:12;;;;;;;1.07;0.60;;;14.70;99.90;;;;;;5075937;28;20698;-68
2023/06/30 07:19:39;;;;;;;1.13;0.70;;;14.70;99.90;;;;;;5075573;28;20696;-68
2023/06/30 07:22:06;;;;;;;0.90;0.67;;;14.50;99.90;;;;;;5075739;28;20702;-68
2023/06/30 07:24:34;;;;;;;2.57;0.90;;;14.40;99.90;;;;;;5075888;28;20177;-69
2023/06/30 07:27:02;;;;;;;0.70;0.70;;;14.30;99.90;;;;;;5075971;28;20182;-68
2023/06/30 07:29:29;;;;;;;2.40;0.87;;;14.30;99.90;;;;;;5075099;28;20201;-67
2023/06/30 07:31:56;;;;;;;1.63;0.90;;;14.20;99.90;;;;;;5075777;28;20178;-68
2023/06/30 07:34:24;;;;;;;1.80;1.47;;;14.20;99.90;;;;;;5075939;28;20740;-69
2023/06/30 07:36:51;;;;;;;2.57;2.00;;;14.10;99.90;;;;;;5075717;28;20174;-67
2023/06/30 07:39:19;;;;;;;2.73;2.43;;;14.10;99.90;;;;;;5075711;28;20633;-71
2023/06/30 07:41:46;;;;;;;1.00;0.87;;;14.00;99.90;;;;;;5075500;28;20190;-68
2023/06/30 07:44:14;;;;;;;1.10;1.00;;;14.00;99.90;;;;;;5076121;28;20182;-68
2023/06/30 07:46:41;;;;;;;3.27;0.90;;;13.90;99.90;;;;;;5075571;28;20240;-68
2023/06/30 07:49:08;;;;;;;0.60;0.60;;;13.80;99.90;;;;;;5075519;28;20257;-68
2023/06/30 07:51:36;;;;;;;0.67;0.60;;;13.70;99.90;;;;;;5075568;28;20189;-68
2023/06/30 07:54:03;;;;;;;2.70;0.90;;;13.70;99.90;;;;;;5075315;28;20207;-68
2023/06/30 07:56:30;;;;;;;1.47;1.00;;;13.70;99.90;;;;;;5075331;28;20174;-68
2023/06/30 07:58:58;;;;;;;1.80;1.60;;;13.60;99.90;;;;;;5073817;28;20547;-68
2023/06/30 08:01:26;;;;;;;4.57;0.90;;;13.50;99.90;;;;;;5075317;28;20181;-69
2023/06/30 08:03:54;;;;;;;1.70;1.23;;;13.50;99.90;;;;;;5075244;28;20179;-69
2023/06/30 08:06:21;;;;;;;1.63;1.27;;;13.40;99.90;;;;;;5075308;28;20283;-68
2023/06/30 08:08:48;;;;;;;2.80;1.63;;;13.30;99.90;;;;;;5075224;28;20572;-68
2023/06/30 08:11:16;;;;;;;5.03;1.73;;;13.10;99.90;;;;;;5075005;28;20248;-67
2023/06/30 08:13:43;;;;;;;1.47;1.37;;;13.10;99.90;;;;;;5075032;28;20274;-70
2023/06/30 08:16:11;;;;;;;6.00;1.40;;;13.00;99.90;;;;;;5074995;28;20209;-70
2023/06/30 08:18:38;;;;;;;1.40;1.20;;;12.80;99.90;;;;;;5075150;28;20229;-67
2023/06/30 08:21:05;;;;;;;0.90;0.90;;;12.90;99.90;;;;;;5074701;28;20178;-69
2023/06/30 08:23:33;;;;;;;1.03;0.80;;;12.80;99.90;;;;;;5070371;28;20635;-70
2023/06/30 08:26:00;;;;;;;0.77;0.77;;;12.80;99.90;;;;;;5073878;28;20516;-73
2023/06/30 08:28:27;;;;;;;4.50;1.40;;;12.70;99.90;;;;;;5074419;28;20257;-73
2023/06/30 08:30:55;;;;;;;1.10;1.00;;;12.50;99.90;;;;;;5074687;28;20178;-71
2023/06/30 08:33:31;;;;;;;1.20;1.00;;;12.30;99.90;;;;;;5073973;28;20281;-70
2023/06/30 08:35:58;;;;;;;1.13;0.90;;;12.10;99.90;;;;;;5074312;28;20228;-70
2023/06/30 08:38:26;;;;;;;1.67;1.10;;;11.90;99.90;;;;;;5074399;28;20178;-70
2023/06/30 08:40:54;;;;;;;1.30;1.10;;;11.80;99.90;;;;;;5076078;28;20185;-69
2023/06/30 08:43:22;;;;;;;3.77;1.77;;;11.70;99.90;;;;;;5074970;28;20208;-69
2023/06/30 08:45:56;;;;;;;3.37;1.97;;;11.60;99.90;;;;;;5066469;28;20218;-73
2023/06/30 08:48:24;;;;;;;3.57;2.47;;;11.50;99.90;;;;;;5073959;28;20198;-70
2023/06/30 08:50:52;;;;;;;9.97;2.97;;;11.40;99.90;;;;;;5079515;28;20190;-72
2023/06/30 08:53:23;;;;;;;4.23;2.03;;;11.30;99.90;;;;;;5074799;28;20186;-71
2023/06/30 08:55:51;;;;;;;6.13;1.93;;;11.20;99.90;;;;;;5073135;28;20745;-70
2023/06/30 08:58:19;;;;;;;2.77;1.97;;;11.20;99.90;;;;;;5073191;28;20634;-70
2023/06/30 09:00:46;;;;;;;2.43;1.80;;;11.00;99.90;;;;;;5073903;28;20177;-69
2023/06/30 09:03:14;;;;;;;2.67;2.00;;;10.80;99.90;;;;;;5074019;28;20198;-70
2023/06/30 09:05:43;;;;;;;2.03;1.70;;;10.70;99.90;;;;;;5072830;28;20181;-71
2023/06/30 09:08:50;;;;;;;3.63;2.00;;;10.60;99.90;;;;;;5073220;28;20541;-70
2023/06/30 09:11:19;;;;;;;3.07;2.07;;;10.50;99.90;;;;;;5067433;28;20606;-70
2023/06/30 09:13:48;;;;;;;2.87;1.87;;;10.50;99.90;;;;;;5073613;28;20174;-69
2023/06/30 09:16:17;;;;;;;1.80;1.70;;;10.50;99.90;;;;;;5073076;28;20653;-70
2023/06/30 09:18:47;;;;;;;3.90;2.60;;;10.50;99.90;;;;;;5072295;28;20221;-70
2023/06/30 09:21:15;;;;;;;3.70;2.00;;;10.40;99.90;;;;;;5072757;28;20187;-70
2023/06/30 09:23:43;;;;;;;4.20;2.47;;;10.40;99.90;;;;;;5073144;28;20174;-70
2023/06/30 09:26:15;;;;;;;3.40;2.40;;;10.30;99.90;;;;;;5073197;28;20178;-71
2023/06/30 09:28:43;;;;;;;2.67;1.93;;;10.30;99.90;;;;;;5072863;28;20518;-69
2023/06/30 09:31:11;;;;;;;3.30;2.50;;;10.30;99.90;;;;;;5072528;28;20182;-70
2023/06/30 09:33:40;;;;;;;4.00;2.50;;;10.30;99.90;;;;;;5072635;28;20204;-71
2023/06/30 09:36:08;;;;;;;4.53;2.63;;;10.30;99.90;;;;;;5072479;28;20193;-69
2023/06/30 09:38:36;;;;;;;3.00;2.23;;;10.30;99.90;;;;;;5071701;28;20182;-70
2023/06/30 09:41:05;;;;;;;3.93;2.53;;;10.30;99.90;;;;;;5072012;28;20219;-68
2023/06/30 09:43:35;;;;;;;5.77;2.90;;;10.30;99.90;;;;;;5072707;28;20181;-73
2023/06/30 09:46:04;;;;;;;6.37;3.13;;;10.20;99.90;;;;;;5072434;28;20173;-72
2023/06/30 09:48:43;;;;;;;6.50;4.37;;;10.30;99.90;;;;;;5072662;28;20188;-70
2023/06/30 09:51:12;;;;;;;7.83;4.00;;;10.30;99.90;;;;;;5072206;28;20176;-70
2023/06/30 09:53:41;;;;;;;9.93;4.23;;;10.30;99.90;;;;;;5072119;28;20643;-69
2023/06/30 09:56:18;;;;;;;12.50;5.03;;;10.20;99.90;;;;;;5072101;28;20217;-70
2023/06/30 09:58:46;;;;;;;9.83;5.67;;;10.10;99.90;;;;;;5072482;28;20641;-68
2023/06/30 10:01:18;;;;;;;9.87;5.83;;;10.10;99.90;;;;;;5071027;28;20184;-69
2023/06/30 10:03:49;;;;;;;7.40;5.53;;;10.10;99.90;;;;;;5072516;28;20217;-70
2023/06/30 10:06:23;;;;;;;6.57;5.33;;;10.00;99.90;;;;;;5072155;28;20177;-71
2023/06/30 10:08:51;;;;;;;10.10;6.80;;;10.00;99.90;;;;;;5072482;28;20650;-71
2023/06/30 10:11:23;;;;;;;14.03;8.90;;;9.90;99.90;;;;;;5071924;28;20270;-70
2023/06/30 10:13:52;;;;;;;15.97;11.90;;;9.90;99.90;;;;;;5072453;28;20710;-69
2023/06/30 10:16:22;;;;;;;14.33;9.23;;;10.00;99.90;;;;;;5071383;28;20271;-69
2023/06/30 10:18:52;;;;;;;12.77;8.53;;;10.00;99.90;;;;;;5072057;28;20242;-72
2023/06/30 10:21:19;;;;;;;12.23;6.27;;;10.10;99.90;;;;;;5071935;28;20330;-73
2023/06/30 10:23:48;;;;;;;5.20;3.03;;;10.30;99.90;;;;;;5072030;28;20294;-69
2023/06/30 10:26:19;;;;;;;4.27;2.83;;;10.50;99.90;;;;;;5071523;28;20212;-71
2023/06/30 10:28:48;;;;;;;5.60;2.80;;;10.60;99.90;;;;;;5072358;28;20669;-68
2023/06/30 10:31:16;;;;;;;5.93;4.47;;;10.60;99.90;;;;;;5071895;28;20176;-71
2023/06/30 10:33:43;;;;;;;5.93;4.10;;;10.60;99.90;;;;;;5072158;28;20172;-70
2023/06/30 10:36:11;;;;;;;5.50;3.00;;;10.50;99.90;;;;;;5072035;28;20189;-68
2023/06/30 10:38:40;;;;;;;4.30;3.47;;;10.60;99.90;;;;;;5071888;28;20622;-71
2023/06/30 10:41:19;;;;;;;4.63;3.50;;;10.60;99.90;;;;;;5071213;28;20676;-70
2023/06/30 10:44:06;;;;;;;4.80;3.30;;;10.50;99.90;;;;;;5072115;28;20276;-70
2023/06/30 10:47:00;;;;;;;5.53;3.33;;;10.30;99.90;;;;;;5072153;28;20543;-74
2023/06/30 10:49:38;;;;;;;3.43;3.03;;;9.90;99.90;;;;;;5070571;28;20219;-70
2023/06/30 10:52:10;;;;;;;3.27;2.70;;;9.70;99.90;;;;;;5070800;28;20172;-70
2023/06/30 10:54:41;;;;;;;4.73;3.03;;;9.50;99.90;;;;;;5072010;28;20208;-71
2023/06/30 10:57:22;;;;;;;6.77;3.17;;;9.30;99.90;;;;;;5071526;28;20654;-71
2023/06/30 11:00:16;;;;;;;3.63;2.63;;;9.20;99.90;;;;;;5071970;28;20226;-69
2023/06/30 11:03:05;;;;;;;7.80;3.47;;;9.30;99.90;;;;;;5071991;28;20164;-69
2023/06/30 11:05:33;;;;;;;7.67;2.90;;;9.40;99.90;;;;;;5075308;28;20179;-71
2023/06/30 11:08:06;;;;;;;5.87;3.10;;;9.50;99.90;;;;;;5078555;28;20226;-71
2023/06/30 11:10:34;;;;;;;4.63;2.70;;;9.50;99.90;;;;;;5075610;28;20539;-72
2023/06/30 11:13:09;;;;;;;5.87;3.37;;;9.40;99.90;;;;;;5078203;28;20227;-73
2023/06/30 11:15:42;;;;;;;5.27;2.87;;;9.40;99.90;;;;;;5078209;28;20211;-69
2023/06/30 11:18:21;;;;;;;6.83;3.20;;;9.30;99.90;;;;;;5074193;28;20187;-70
2023/06/30 11:21:01;;;;;;;5.50;3.63;;;9.30;99.90;;;;;;5075583;28;20185;-69
2023/06/30 11:23:33;;;;;;;8.10;3.80;;;9.20;99.90;;;;;;5073844;28;20246;-70
2023/06/30 11:26:16;;;;;;;5.73;4.27;;;9.10;99.90;;;;;;5075179;28;20556;-71
2023/06/30 11:28:44;;;;;;;5.87;3.87;;;9.00;99.90;;;;;;5075370;28;20172;-72
2023/06/30 11:31:12;;;;;;;5.60;4.40;;;8.80;99.90;;;;;;5074986;28;20178;-69
2023/06/30 11:33:43;;;;;;;6.83;4.63;;;8.80;99.90;;;;;;5075238;28;20637;-71
2023/06/30 11:36:15;;;;;;;5.90;4.10;;;8.60;99.90;;;;;;5074381;28;20257;-69
2023/06/30 11:38:52;;;;;;;4.07;2.93;;;8.60;99.90;;;;;;5075150;28;20517;-70
2023/06/30 11:41:23;;;;;;;4.70;3.20;;;8.50;99.90;;;;;;5075017;28;20193;-71
2023/06/30 11:43:51;;;;;;;5.57;3.33;;;8.40;99.90;;;;;;5075047;28;20662;-72
2023/06/30 11:46:18;;;;;;;4.30;2.93;;;8.40;99.90;;;;;;5074948;28;20190;-70
2023/06/30 11:48:46;;;;;;;5.13;2.70;;;8.30;99.90;;;;;;5073760;28;20561;-70
2023/06/30 11:51:13;;;;;;;4.17;2.83;;;8.30;99.90;;;;;;5074940;28;20654;-71
2023/06/30 11:53:58;;;;;;;6.50;3.00;;;8.30;99.90;;;;;;5074692;28;20181;-70
2023/06/30 11:56:27;;;;;;;5.20;3.20;;;8.30;99.90;;;;;;5074478;28;20194;-69
2023/06/30 11:58:54;;;;;;;8.07;3.60;;;8.20;99.90;;;;;;5073447;28;20178;-70
2023/06/30 12:01:22;;;;;;;4.63;3.20;;;8.10;99.90;;;;;;5073687;28;20243;-72
2023/06/30 12:04:21;;;;;;;3.27;2.57;;;8.00;99.90;;;;;;5074714;28;20649;-71
2023/06/30 12:06:54;;;;;;;3.80;2.60;;;8.00;99.90;;;;;;5036747;28;20658;-70
2023/06/30 12:09:25;;;;;;;6.20;2.60;;;8.00;99.90;;;;;;5059687;28;20184;-70
2023/06/30 12:11:55;;;;;;;3.70;2.90;;;8.00;99.90;;;;;;5074503;28;20225;-70
2023/06/30 12:14:25;;;;;;;4.67;2.70;;;7.90;99.90;;;;;;5073857;28;20235;-73
2023/06/30 12:16:53;;;;;;;3.60;2.60;;;7.90;99.90;;;;;;5074412;28;20270;-70
2023/06/30 12:19:27;;;;;;;4.30;2.40;;;7.80;99.90;;;;;;5073638;28;20302;-72
2023/06/30 12:22:03;;;;;;;4.60;2.27;;;7.80;99.90;;;;;;5073430;28;20184;-72
2023/06/30 12:24:35;;;;;;;3.87;2.47;;;7.80;99.90;;;;;;5073097;28;20188;-70
2023/06/30 12:27:07;;;;;;;3.87;2.40;;;7.90;99.90;;;;;;5073922;28;20197;-70
2023/06/30 12:29:35;;;;;;;4.27;2.60;;;7.90;99.90;;;;;;5073494;28;20553;-71
2023/06/30 12:32:13;;;;;;;3.00;2.70;;;7.90;99.90;;;;;;5072784;28;20206;-70
2023/06/30 12:34:41;;;;;;;5.17;2.90;;;7.90;99.90;;;;;;5073678;28;20686;-69
2023/06/30 12:37:08;;;;;;;7.10;3.87;;;7.90;99.90;;;;;;5073832;28;20176;-70
2023/06/30 12:39:36;;;;;;;8.03;4.53;;;7.80;99.90;;;;;;5073880;28;20264;-70
2023/06/30 12:42:03;;;;;;;6.30;4.53;;;7.80;99.90;;;;;;5073228;28;20179;-70
2023/06/30 12:44:31;;;;;;;7.67;4.93;;;7.70;99.90;;;;;;5073640;28;20634;-71
2023/06/30 12:46:59;;;;;;;8.57;4.97;;;7.70;99.90;;;;;;5073275;28;20184;-69
2023/06/30 12:49:30;;;;;;;6.97;4.77;;;7.60;99.90;;;;;;5073549;28;20644;-70
2023/06/30 12:51:58;;;;;;;12.23;5.20;;;7.70;99.90;;;;;;5072841;28;20176;-70
2023/06/30 12:54:25;;;;;;;9.50;5.27;;;7.70;99.90;;;;;;5073326;28;20248;-69
2023/06/30 12:56:53;;;;;;;8.10;5.17;;;7.70;99.90;;;;;;5073542;28;20521;-71
2023/06/30 12:59:21;;;;;;;9.60;5.10;;;7.70;99.90;;;;;;5072971;28;20271;-73
2023/06/30 13:01:49;;;;;;;6.43;5.30;;;7.60;99.90;;;;;;5073408;28;20172;-70
2023/06/30 13:04:16;;;;;;;7.67;5.53;;;7.50;99.90;;;;;;5053548;28;20173;-72
2023/06/30 13:06:43;;;;;;;8.50;5.13;;;7.50;99.90;;;;;;5062671;28;20186;-72